Time;durP1;ratioP1;P1;durP2;ratioP2;P2;SDS_P1;SDS_P2;PMS_P1;PMS_P2;Temp;Humidity;BMP_temperature;BMP_pressure;BME280_temperature;BME280_humidity;BME280_pressure;Samples;Min_cycle;Max_cycle;Signal;HPM_P1;HPM_P2
2022/02/22 00:00:01;;;;;;;12.63;7.25;;;;;;;5.20;62.41;99092.40;1760303;81;20993;-70
2022/02/22 00:02:27;;;;;;;11.25;6.67;;;;;;;5.19;62.46;99099.89;1760240;80;20984;-71
2022/02/22 00:04:53;;;;;;;8.80;6.55;;;;;;;5.17;62.45;99093.95;1760478;81;22417;-70
2022/02/22 00:07:20;;;;;;;9.80;6.28;;;;;;;5.15;62.48;99095.38;1758968;81;21658;-71
2022/02/22 00:09:47;;;;;;;13.58;7.50;;;;;;;5.12;62.60;99100.03;1760153;81;20932;-71
2022/02/22 00:12:14;;;;;;;10.03;6.50;;;;;;;5.07;62.69;99102.16;1728082;81;21054;-72
2022/02/22 00:14:41;;;;;;;11.38;6.78;;;;;;;5.04;62.79;99091.46;1738295;81;20948;-71
2022/02/22 00:17:07;;;;;;;11.75;7.30;;;;;;;5.02;62.91;99097.73;1760238;81;21790;-71
2022/02/22 00:19:34;;;;;;;11.85;7.17;;;;;;;5.00;63.01;99097.03;1760140;80;21026;-72
2022/02/22 00:22:00;;;;;;;11.88;8.10;;;;;;;4.98;63.10;99094.54;1735813;81;20996;-71
2022/02/22 00:24:27;;;;;;;13.90;8.08;;;;;;;4.97;63.19;99087.64;1730508;82;21032;-72
2022/02/22 00:26:53;;;;;;;11.80;7.65;;;;;;;4.96;63.23;99085.15;1728407;81;21574;-71
2022/02/22 00:29:20;;;;;;;12.88;8.33;;;;;;;4.95;63.31;99075.63;1724722;81;22819;-72
2022/02/22 00:31:46;;;;;;;14.60;8.15;;;;;;;4.93;63.35;99071.00;1725724;81;21411;-71
2022/02/22 00:34:13;;;;;;;12.73;8.13;;;;;;;4.90;63.36;99066.81;1724629;81;21515;-71
2022/02/22 00:36:40;;;;;;;14.15;8.50;;;;;;;4.91;63.39;99069.78;1724663;81;20953;-71
2022/02/22 00:39:06;;;;;;;15.08;9.18;;;;;;;4.91;63.39;99062.41;1724699;82;20980;-71
2022/02/22 00:41:32;;;;;;;11.38;7.65;;;;;;;4.91;63.44;99061.10;1724820;82;22173;-70
2022/02/22 00:43:59;;;;;;;14.43;8.30;;;;;;;4.88;63.46;99059.09;1724759;81;20943;-70
2022/02/22 00:46:25;;;;;;;12.58;8.23;;;;;;;4.86;63.52;99057.07;1722006;81;21014;-70
2022/02/22 00:48:52;;;;;;;13.72;8.23;;;;;;;4.83;63.64;99062.55;1735361;80;21008;-70
2022/02/22 00:51:19;;;;;;;13.28;8.50;;;;;;;4.79;63.74;99053.73;1750295;80;21126;-70
2022/02/22 00:53:46;;;;;;;12.05;8.43;;;;;;;4.73;63.88;99058.11;1724646;83;21828;-70
2022/02/22 00:56:12;;;;;;;15.78;8.73;;;;;;;4.68;63.99;99056.34;1724594;83;20964;-70
2022/02/22 00:58:39;;;;;;;16.32;8.90;;;;;;;4.64;64.17;99060.98;1726755;81;21555;-70
2022/02/22 01:01:05;;;;;;;15.55;9.53;;;;;;;4.59;64.31;99061.78;1741464;81;21632;-70
2022/02/22 01:03:33;;;;;;;15.53;9.50;;;;;;;4.54;64.50;99064.77;1724831;82;21083;-70
2022/02/22 01:06:00;;;;;;;15.88;9.68;;;;;;;4.49;64.68;99066.05;1736935;80;21799;-70
2022/02/22 01:08:28;;;;;;;14.87;9.33;;;;;;;4.44;64.92;99065.09;1754572;81;20993;-70
2022/02/22 01:10:55;;;;;;;14.75;8.70;;;;;;;4.39;65.06;99068.52;1754166;80;20993;-70
2022/02/22 01:13:23;;;;;;;14.47;9.28;;;;;;;4.33;65.40;99071.58;1753378;80;20962;-70
2022/02/22 01:15:50;;;;;;;15.08;9.33;;;;;;;4.26;65.47;99063.85;1754865;80;21519;-70
2022/02/22 01:18:17;;;;;;;14.78;9.00;;;;;;;4.21;65.76;99065.95;1755576;80;22196;-70
2022/02/22 01:20:43;;;;;;;15.48;9.40;;;;;;;4.15;65.95;99066.41;1754603;80;21020;-70
2022/02/22 01:23:09;;;;;;;14.43;9.90;;;;;;;4.10;66.18;99067.23;1740743;80;21027;-70
2022/02/22 01:25:36;;;;;;;14.43;9.38;;;;;;;4.03;66.37;99062.44;1724604;83;21036;-70
2022/02/22 01:28:03;;;;;;;17.52;10.05;;;;;;;3.99;66.54;99065.41;1723165;83;20949;-70
2022/02/22 01:30:30;;;;;;;12.70;9.70;;;;;;;3.95;66.79;99066.56;1703821;83;21835;-70
2022/02/22 01:32:56;;;;;;;16.12;10.10;;;;;;;3.90;66.97;99066.08;1722586;83;21411;-70
2022/02/22 01:35:22;;;;;;;15.93;10.43;;;;;;;3.85;67.28;99070.31;1722350;83;21436;-70
2022/02/22 01:37:49;;;;;;;18.20;10.50;;;;;;;3.80;67.60;99067.22;1722235;82;21449;-69
2022/02/22 01:40:16;;;;;;;16.55;10.55;;;;;;;3.76;67.78;99071.45;1738610;82;20996;-70
2022/02/22 01:42:42;;;;;;;15.45;10.05;;;;;;;3.71;68.11;99077.85;1745545;81;21783;-70
2022/02/22 01:45:09;;;;;;;16.40;10.70;;;;;;;3.69;68.46;99083.66;1722608;82;20985;-71
2022/02/22 01:47:36;;;;;;;17.12;11.60;;;;;;;3.65;68.83;99080.89;1723373;82;21000;-71
2022/02/22 01:50:05;;;;;;;16.05;10.32;;;;;;;3.62;69.02;99080.28;1722843;82;21035;-71
2022/02/22 01:52:31;;;;;;;17.98;11.63;;;;;;;3.60;69.21;99083.02;1722869;82;20949;-69
2022/02/22 01:54:58;;;;;;;17.37;11.10;;;;;;;3.58;69.48;99085.38;1722440;83;21777;-70
2022/02/22 01:57:25;;;;;;;20.60;11.85;;;;;;;3.57;69.70;99083.68;1739342;82;20965;-70
2022/02/22 01:59:53;;;;;;;17.50;11.75;;;;;;;3.52;69.89;99085.80;1752637;80;20961;-70
2022/02/22 02:02:19;;;;;;;19.10;11.95;;;;;;;3.50;70.33;99090.30;1752769;81;20949;-70
2022/02/22 02:04:45;;;;;;;26.77;16.62;;;;;;;3.45;70.53;99091.44;1749162;81;21056;-70
2022/02/22 02:07:12;;;;;;;16.15;11.80;;;;;;;3.43;70.68;99096.42;1735677;81;21770;-70
2022/02/22 02:09:39;;;;;;;19.25;12.88;;;;;;;3.41;70.96;99097.84;1752302;81;20947;-69
2022/02/22 02:12:06;;;;;;;18.37;11.88;;;;;;;3.41;71.12;99096.53;1753198;80;21040;-69
2022/02/22 02:14:33;;;;;;;16.60;11.65;;;;;;;3.41;71.19;99101.75;1750648;82;21047;-69
2022/02/22 02:16:59;;;;;;;17.45;11.70;;;;;;;3.40;71.28;99104.00;1752614;81;20929;-69
2022/02/22 02:19:26;;;;;;;17.35;12.35;;;;;;;3.38;71.51;99103.75;1742065;80;22481;-70
2022/02/22 02:21:58;;;;;;;17.27;11.60;;;;;;;3.35;71.60;99106.55;1722792;82;20861;-69
2022/02/22 02:24:26;;;;;;;21.52;13.25;;;;;;;3.34;71.74;99112.25;1722651;82;20997;-70
2022/02/22 02:26:54;;;;;;;18.12;13.30;;;;;;;3.33;71.98;99109.28;1722778;83;21432;-71
2022/02/22 02:29:23;;;;;;;17.95;12.95;;;;;;;3.31;72.05;99112.94;1724961;83;20950;-70
2022/02/22 02:31:51;;;;;;;18.37;12.55;;;;;;;3.30;72.25;99117.80;1726274;81;21773;-69
2022/02/22 02:34:21;;;;;;;20.72;13.75;;;;;;;3.29;72.34;99113.53;1724670;83;20945;-69
2022/02/22 02:36:48;;;;;;;23.40;14.87;;;;;;;3.29;72.57;99110.92;1754629;80;20985;-69
2022/02/22 02:39:14;;;;;;;20.48;14.15;;;;;;;3.25;72.76;99103.75;1735288;81;21505;-70
2022/02/22 02:41:44;;;;;;;22.00;14.55;;;;;;;3.27;72.83;99096.64;1755436;81;21420;-70
2022/02/22 02:44:13;;;;;;;20.35;13.60;;;;;;;3.28;72.99;99097.48;1729691;81;21493;-70
2022/02/22 02:46:40;;;;;;;23.95;16.12;;;;;;;3.27;73.12;99104.95;1725282;82;20941;-70
2022/02/22 02:49:08;;;;;;;26.48;17.77;;;;;;;3.27;73.35;99110.16;1751104;81;20992;-70
2022/02/22 02:51:35;;;;;;;31.57;21.05;;;;;;;3.23;73.47;99101.73;1745524;80;21032;-70
2022/02/22 02:54:02;;;;;;;28.80;19.32;;;;;;;3.22;73.62;99103.14;1724884;81;20992;-70
2022/02/22 02:56:28;;;;;;;29.45;19.52;;;;;;;3.22;73.69;99104.45;1724853;83;21807;-69
2022/02/22 02:58:57;;;;;;;27.73;18.48;;;;;;;3.20;73.77;99105.03;1724904;82;21472;-70
2022/02/22 03:01:25;;;;;;;25.72;17.62;;;;;;;3.17;73.89;99096.92;1725090;81;21044;-71
2022/02/22 03:03:51;;;;;;;26.70;17.87;;;;;;;3.16;74.00;99101.30;1724737;82;20945;-71
2022/02/22 03:06:18;;;;;;;26.35;18.65;;;;;;;3.14;74.15;99105.80;1726429;81;21072;-70
2022/02/22 03:08:45;;;;;;;26.77;19.02;;;;;;;3.12;74.32;99116.82;1724498;81;21829;-70
2022/02/22 03:11:12;;;;;;;27.82;18.70;;;;;;;3.12;74.38;99112.91;1710020;82;20991;-70
2022/02/22 03:13:38;;;;;;;23.80;17.17;;;;;;;3.11;74.58;99105.19;1724698;83;21072;-70
2022/02/22 03:16:05;;;;;;;24.10;17.92;;;;;;;3.12;74.78;99109.47;1706273;83;21008;-71
2022/02/22 03:18:34;;;;;;;22.50;16.87;;;;;;;3.10;74.90;99103.53;1724516;82;20956;-71
2022/02/22 03:21:02;;;;;;;22.90;15.98;;;;;;;3.10;75.04;99095.23;1725549;81;21320;-71
2022/02/22 03:23:29;;;;;;;25.95;18.10;;;;;;;3.11;75.17;99098.67;1749159;81;20941;-70
2022/02/22 03:25:55;;;;;;;21.60;16.97;;;;;;;3.12;75.38;99097.73;1755080;81;20993;-71
2022/02/22 03:28:22;;;;;;;23.67;18.17;;;;;;;3.13;75.49;99105.91;1743985;80;20989;-69
2022/02/22 03:30:48;;;;;;;24.77;18.15;;;;;;;3.14;75.71;99106.28;1714450;83;21011;-69
2022/02/22 03:33:15;;;;;;;25.43;19.77;;;;;;;3.15;75.85;99104.03;1747539;81;21847;-69
2022/02/22 03:35:42;;;;;;;27.00;19.00;;;;;;;3.16;76.07;99111.74;1747800;81;20985;-69
2022/02/22 03:38:08;;;;;;;28.07;20.15;;;;;;;3.19;76.28;99112.50;1743721;82;21099;-69
2022/02/22 03:40:35;;;;;;;28.40;19.90;;;;;;;3.21;76.48;99117.13;1718079;83;21032;-69
2022/02/22 03:43:02;;;;;;;27.60;19.37;;;;;;;3.23;76.53;99113.94;1721574;83;20933;-69
2022/02/22 03:45:29;;;;;;;29.35;20.25;;;;;;;3.26;76.64;99126.30;1722606;82;22440;-69
2022/02/22 03:47:55;;;;;;;28.92;20.17;;;;;;;3.27;76.77;99126.66;1722534;82;21481;-69
2022/02/22 03:50:22;;;;;;;28.95;19.92;;;;;;;3.31;76.92;99123.38;1722659;82;20986;-68
2022/02/22 03:52:50;;;;;;;29.12;20.70;;;;;;;3.32;76.95;99117.22;1722526;83;20970;-68
2022/02/22 03:55:17;;;;;;;29.23;20.50;;;;;;;3.33;77.03;99124.94;1723775;82;21086;-70
2022/02/22 03:57:43;;;;;;;29.95;22.07;;;;;;;3.36;77.10;99126.48;1722452;83;21766;-70
2022/02/22 04:00:15;;;;;;;30.65;20.77;;;;;;;3.38;77.17;99119.41;1722589;82;20989;-70
2022/02/22 04:02:42;;;;;;;29.80;22.22;;;;;;;3.40;77.26;99118.36;1717940;83;20973;-69
2022/02/22 04:05:09;;;;;;;31.45;21.62;;;;;;;3.42;77.35;99119.08;1717775;83;20960;-69
2022/02/22 04:07:35;;;;;;;31.50;22.42;;;;;;;3.45;77.49;99121.94;1722334;83;20988;-71
2022/02/22 04:10:04;;;;;;;32.85;22.55;;;;;;;3.47;77.62;99121.82;1722452;83;21827;-71
2022/02/22 04:12:32;;;;;;;31.10;21.87;;;;;;;3.48;77.69;99122.22;1723379;82;20941;-71
2022/02/22 04:15:00;;;;;;;31.23;21.20;;;;;;;3.49;77.85;99113.44;1728256;82;21087;-71
2022/02/22 04:17:27;;;;;;;35.30;23.47;;;;;;;3.49;77.98;99108.22;1730199;82;21474;-72
2022/02/22 04:19:54;;;;;;;32.33;23.30;;;;;;;3.50;78.08;99106.80;1732964;82;21482;-71
2022/02/22 04:22:21;;;;;;;35.98;23.65;;;;;;;3.51;78.40;99104.55;1722697;83;22897;-71
2022/02/22 04:24:47;;;;;;;38.58;23.83;;;;;;;3.54;78.57;99102.18;1722366;83;21031;-71
2022/02/22 04:27:14;;;;;;;37.15;24.92;;;;;;;3.55;78.63;99099.46;1699251;84;21076;-71
2022/02/22 04:29:41;;;;;;;34.85;23.90;;;;;;;3.57;78.71;99094.98;1683976;83;21021;-71
2022/02/22 04:32:08;;;;;;;36.45;25.00;;;;;;;3.58;78.80;99087.98;1718354;82;21476;-71
2022/02/22 04:34:34;;;;;;;35.38;24.60;;;;;;;3.59;78.89;99085.27;1732977;82;22469;-71
2022/02/22 04:37:03;;;;;;;37.38;25.00;;;;;;;3.61;79.01;99093.81;1732841;82;20950;-71
2022/02/22 04:39:29;;;;;;;42.65;25.37;;;;;;;3.62;79.11;99094.64;1712332;82;21376;-71
2022/02/22 04:41:56;;;;;;;38.73;23.85;;;;;;;3.63;79.21;99100.23;1732745;82;21002;-72
2022/02/22 04:44:22;;;;;;;44.30;26.12;;;;;;;3.65;79.28;99116.61;1727514;82;20961;-71
2022/02/22 04:46:48;;;;;;;44.40;26.95;;;;;;;3.66;79.43;99123.50;1713046;82;22167;-71
2022/02/22 04:49:15;;;;;;;44.33;26.27;;;;;;;3.66;79.53;99115.19;1732565;82;20978;-71
2022/02/22 04:51:43;;;;;;;50.15;28.10;;;;;;;3.66;79.62;99123.50;1725101;82;20950;-70
2022/02/22 04:54:10;;;;;;;45.43;26.33;;;;;;;3.67;79.74;99124.72;1713147;82;20978;-71
2022/02/22 04:56:38;;;;;;;49.93;27.30;;;;;;;3.68;79.81;99125.55;1703828;84;21001;-70
2022/02/22 04:59:04;;;;;;;45.15;26.30;;;;;;;3.68;79.94;99127.69;1704609;82;22237;-71
2022/02/22 05:01:31;;;;;;;46.58;26.15;;;;;;;3.69;80.06;99126.75;1728784;82;21020;-70
2022/02/22 05:03:57;;;;;;;51.60;28.38;;;;;;;3.70;80.14;99128.41;1700993;84;21041;-70
2022/02/22 05:06:24;;;;;;;42.90;25.77;;;;;;;3.72;80.23;99128.30;1730728;82;21017;-70
2022/02/22 05:08:50;;;;;;;45.40;25.60;;;;;;;3.72;80.33;99138.27;1734163;82;20950;-70
2022/02/22 05:11:17;;;;;;;49.30;27.73;;;;;;;3.73;80.45;99132.58;1734259;82;22172;-70
2022/02/22 05:13:43;;;;;;;53.60;29.92;;;;;;;3.74;80.58;99137.69;1734133;82;20993;-69
2022/02/22 05:16:10;;;;;;;47.15;26.62;;;;;;;3.76;80.71;99147.19;1733762;82;20958;-70
2022/02/22 05:18:37;;;;;;;46.42;27.45;;;;;;;3.77;80.80;99145.80;1734088;82;21508;-69
2022/02/22 05:21:04;;;;;;;51.23;27.77;;;;;;;3.80;80.95;99157.32;1720626;82;21044;-71
2022/02/22 05:23:33;;;;;;;53.95;29.10;;;;;;;3.79;81.06;99158.27;1690567;84;21802;-70
2022/02/22 05:26:00;;;;;;;51.28;27.85;;;;;;;3.81;81.19;99160.30;1703569;84;21404;-69
2022/02/22 05:28:27;;;;;;;50.85;27.77;;;;;;;3.82;81.31;99168.48;1733286;82;21032;-74
2022/02/22 05:30:54;;;;;;;55.65;30.15;;;;;;;3.83;81.43;99166.23;1749543;81;21059;-70
2022/02/22 05:33:22;;;;;;;46.37;27.37;;;;;;;3.84;81.51;99170.52;1749473;82;20937;-68
2022/02/22 05:35:51;;;;;;;55.65;30.17;;;;;;;3.85;81.64;99168.73;1749331;81;22478;-67
2022/02/22 05:38:17;;;;;;;54.63;28.47;;;;;;;3.86;81.73;99171.27;1704745;82;21060;-67
2022/02/22 05:40:44;;;;;;;56.98;29.35;;;;;;;3.87;81.82;99183.38;1715687;83;21048;-67
2022/02/22 05:43:10;;;;;;;54.03;28.65;;;;;;;3.90;81.90;99186.23;1710078;84;21020;-68
2022/02/22 05:45:37;;;;;;;53.75;30.25;;;;;;;3.91;81.99;99187.42;1730425;82;20985;-68
2022/02/22 05:48:04;;;;;;;50.88;27.37;;;;;;;3.91;82.06;99182.20;1718544;81;22676;-74
2022/02/22 05:50:31;;;;;;;54.10;29.40;;;;;;;3.94;82.15;99185.06;1739196;82;20954;-74
2022/02/22 05:52:58;;;;;;;54.65;30.55;;;;;;;3.94;82.18;99185.89;1738232;82;21100;-76
2022/02/22 05:55:25;;;;;;;49.63;26.57;;;;;;;3.97;82.26;99186.17;1727164;82;21121;-80
2022/02/22 05:57:52;;;;;;;49.73;28.50;;;;;;;4.00;82.28;99187.25;1739362;82;20962;-79
2022/02/22 06:00:19;;;;;;;49.65;27.85;;;;;;;4.01;82.32;99191.52;1739415;82;22239;-80
2022/02/22 06:02:46;;;;;;;55.65;29.70;;;;;;;4.02;82.37;99187.97;1709907;82;21049;-80
2022/02/22 06:05:14;;;;;;;53.75;28.70;;;;;;;4.03;82.44;99187.02;1709919;84;21088;-82
2022/02/22 06:07:42;;;;;;;52.75;28.83;;;;;;;4.05;82.50;99193.44;1710048;84;20966;-82
2022/02/22 06:10:09;;;;;;;52.17;30.10;;;;;;;4.07;82.51;99196.80;1709937;84;20966;-78
2022/02/22 06:12:36;;;;;;;49.33;27.82;;;;;;;4.08;82.54;99188.02;1710959;82;22326;-79
2022/02/22 06:15:05;;;;;;;53.33;29.35;;;;;;;4.10;82.58;99189.56;1718415;82;20944;-80
2022/02/22 06:17:43;;;;;;;47.40;27.90;;;;;;;4.12;82.62;99192.06;1734015;82;20963;-80
2022/02/22 06:20:12;;;;;;;50.65;27.42;;;;;;;4.14;82.63;99192.78;1734301;82;20978;-81
2022/02/22 06:22:41;;;;;;;53.13;29.05;;;;;;;4.17;82.65;99191.27;1710354;82;20961;-76
2022/02/22 06:25:09;;;;;;;51.77;28.30;;;;;;;4.20;82.68;99202.33;1710261;84;22193;-75
2022/02/22 06:27:47;;;;;;;47.53;26.50;;;;;;;4.21;82.69;99196.63;1736440;82;21044;-76
2022/02/22 06:30:14;;;;;;;50.73;28.00;;;;;;;4.22;82.70;99200.44;1725535;81;21523;-77
2022/02/22 06:32:40;;;;;;;45.50;25.62;;;;;;;4.24;82.73;99196.40;1700717;83;21043;-77
2022/02/22 06:35:07;;;;;;;49.10;27.48;;;;;;;4.28;82.74;99201.78;1732408;82;21045;-77
2022/02/22 06:37:34;;;;;;;46.85;26.33;;;;;;;4.28;82.71;99203.09;1736002;82;22312;-79
2022/02/22 06:40:01;;;;;;;48.42;26.33;;;;;;;4.32;82.75;99213.68;1718292;82;20966;-78
2022/02/22 06:42:28;;;;;;;44.60;26.52;;;;;;;4.35;82.74;99218.70;1739446;82;20989;-76
2022/02/22 06:44:54;;;;;;;43.42;24.72;;;;;;;4.37;82.74;99228.57;1739351;82;21285;-76
2022/02/22 06:47:21;;;;;;;44.90;25.02;;;;;;;4.41;82.73;99228.70;1710965;82;20956;-76
2022/02/22 06:49:47;;;;;;;42.85;24.90;;;;;;;4.43;82.70;99227.28;1709080;84;21797;-76
2022/02/22 06:52:14;;;;;;;37.10;22.62;;;;;;;4.45;82.65;99231.47;1689131;84;21040;-76
2022/02/22 06:54:40;;;;;;;42.17;25.75;;;;;;;4.49;82.63;99235.52;1732472;82;20950;-76
2022/02/22 06:57:07;;;;;;;43.23;25.77;;;;;;;4.49;82.55;99231.59;1739674;82;20990;-76
2022/02/22 06:59:33;;;;;;;39.78;24.95;;;;;;;4.52;82.50;99235.77;1739415;82;21068;-76
2022/02/22 07:02:00;;;;;;;36.05;22.25;;;;;;;4.55;82.45;99235.56;1736779;82;21799;-76
2022/02/22 07:04:27;;;;;;;41.42;23.90;;;;;;;4.55;82.42;99237.70;1713510;82;21484;-76
2022/02/22 07:06:53;;;;;;;38.00;23.07;;;;;;;4.57;82.37;99234.50;1710260;83;20946;-75
2022/02/22 07:09:20;;;;;;;34.08;21.42;;;;;;;4.60;82.32;99235.57;1715646;82;21122;-77
2022/02/22 07:11:47;;;;;;;36.28;21.60;;;;;;;4.64;82.30;99235.37;1735646;82;21080;-75
2022/02/22 07:14:14;;;;;;;33.35;22.07;;;;;;;4.67;82.23;99235.13;1735457;82;21800;-75
2022/02/22 07:16:41;;;;;;;33.95;21.23;;;;;;;4.69;82.17;99231.92;1708706;84;21028;-76
2022/02/22 07:19:07;;;;;;;33.65;21.25;;;;;;;4.71;82.12;99233.95;1713521;82;21036;-75
2022/02/22 07:21:34;;;;;;;32.98;20.45;;;;;;;4.74;82.05;99231.13;1709015;84;21056;-76
2022/02/22 07:24:02;;;;;;;33.48;19.57;;;;;;;4.76;81.97;99234.46;1708707;84;21092;-76
2022/02/22 07:26:29;;;;;;;30.97;20.43;;;;;;;4.79;81.88;99235.53;1708907;84;21799;-78
2022/02/22 07:28:55;;;;;;;31.45;19.35;;;;;;;4.80;81.75;99239.81;1708640;84;21358;-80
2022/02/22 07:31:22;;;;;;;29.65;20.05;;;;;;;4.82;81.66;99241.84;1708872;83;21523;-81
2022/02/22 07:33:49;;;;;;;29.85;19.48;;;;;;;4.85;81.57;99246.87;1721004;82;21040;-80
2022/02/22 07:36:17;;;;;;;28.73;19.75;;;;;;;4.91;81.49;99249.48;1725945;81;21590;-83
2022/02/22 07:38:43;;;;;;;30.75;21.17;;;;;;;4.94;81.38;99256.66;1690293;83;21559;-80
2022/02/22 07:41:10;;;;;;;29.37;18.73;;;;;;;4.98;81.25;99259.87;1719994;82;21507;-82
2022/02/22 07:43:37;;;;;;;33.85;21.75;;;;;;;5.03;81.15;99262.99;1708764;82;21021;-79
2022/02/22 07:46:03;;;;;;;33.13;21.65;;;;;;;5.08;80.93;99263.47;1715261;82;21077;-81
2022/02/22 07:48:30;;;;;;;28.47;18.85;;;;;;;5.12;80.80;99263.14;1735108;82;21042;-80
2022/02/22 07:50:57;;;;;;;29.48;19.52;;;;;;;5.16;80.60;99260.64;1708782;82;22514;-79
2022/02/22 07:53:25;;;;;;;26.52;17.67;;;;;;;5.20;80.41;99261.71;1730130;82;21028;-81
2022/02/22 07:55:53;;;;;;;26.20;17.62;;;;;;;5.25;80.26;99266.14;1722552;81;21138;-81
2022/02/22 07:58:20;;;;;;;23.77;16.40;;;;;;;5.28;79.99;99270.66;1708692;84;21040;-81
2022/02/22 08:00:48;;;;;;;25.12;17.67;;;;;;;5.29;79.44;99269.71;1714328;82;21055;-80
2022/02/22 08:03:15;;;;;;;27.50;17.85;;;;;;;5.31;79.26;99271.77;1724707;82;22587;-83
2022/02/22 08:05:42;;;;;;;26.57;17.52;;;;;;;5.35;79.12;99272.36;1711833;82;21079;-82
2022/02/22 08:08:09;;;;;;;27.42;18.62;;;;;;;5.38;78.91;99279.49;1738120;82;21028;-83
2022/02/22 08:10:38;;;;;;;25.97;18.57;;;;;;;5.41;78.60;99284.52;1721054;81;21282;-81
2022/02/22 08:13:04;;;;;;;28.30;18.60;;;;;;;5.42;78.37;99291.90;1711809;82;21060;-79
2022/02/22 08:15:34;;;;;;;32.67;19.65;;;;;;;5.44;78.18;99293.44;1703030;82;22264;-81
2022/02/22 08:18:01;;;;;;;31.68;20.62;;;;;;;5.46;77.96;99296.77;1724093;82;21456;-81
2022/02/22 08:20:27;;;;;;;28.98;19.80;;;;;;;5.47;77.74;99296.30;1722097;82;21476;-81
2022/02/22 08:22:53;;;;;;;35.30;22.65;;;;;;;5.46;77.59;99295.47;1718924;82;21099;-82
2022/02/22 08:25:21;;;;;;;35.85;23.00;;;;;;;5.46;77.43;99298.56;1715270;82;21048;-83
2022/02/22 08:27:48;;;;;;;30.57;19.10;;;;;;;5.48;77.34;99300.58;1726915;82;21782;-82
2022/02/22 08:30:14;;;;;;;27.93;19.07;;;;;;;5.50;77.26;99300.46;1737175;82;21280;-82
2022/02/22 08:32:41;;;;;;;28.25;18.73;;;;;;;5.56;77.30;99304.77;1733670;82;21518;-82
2022/02/22 08:35:08;;;;;;;28.27;18.65;;;;;;;5.63;77.15;99299.44;1697766;83;21097;-84
2022/02/22 08:37:34;;;;;;;29.32;19.30;;;;;;;5.70;77.06;99295.88;1697048;84;21115;-81
2022/02/22 08:40:02;;;;;;;29.77;19.80;;;;;;;5.76;76.83;99295.39;1716168;82;22804;-83
2022/02/22 08:42:28;;;;;;;27.77;18.82;;;;;;;5.81;76.62;99305.06;1742282;81;21066;-79
2022/02/22 08:44:55;;;;;;;27.98;19.42;;;;;;;5.87;76.43;99299.80;1714362;82;21050;-88
2022/02/22 08:47:21;;;;;;;27.82;19.23;;;;;;;5.93;76.29;99303.30;1723915;81;21044;-86
2022/02/22 08:49:48;;;;;;;25.12;16.95;;;;;;;6.00;76.19;99303.20;1723680;81;21498;-85
2022/02/22 08:52:17;;;;;;;29.55;18.32;;;;;;;6.07;75.96;99314.85;1723624;81;22392;-84
2022/02/22 08:54:43;;;;;;;27.42;17.42;;;;;;;6.10;75.71;99305.46;1743298;81;21511;-84
2022/02/22 08:57:10;;;;;;;26.80;16.93;;;;;;;6.16;75.46;99310.69;1743992;80;21032;-80
2022/02/22 08:59:36;;;;;;;26.00;17.60;;;;;;;6.20;75.26;99311.65;1751762;81;21452;-83
2022/02/22 09:02:03;;;;;;;26.17;17.92;;;;;;;6.25;74.97;99312.59;1743059;81;21459;-82
2022/02/22 09:04:30;;;;;;;24.43;16.75;;;;;;;6.25;74.56;99314.73;1734720;81;21808;-89
2022/02/22 09:06:57;;;;;;;28.47;18.57;;;;;;;6.27;74.24;99308.05;1753955;81;21669;-84
2022/02/22 09:09:24;;;;;;;25.52;18.48;;;;;;;6.30;73.98;99320.47;1732536;81;21001;-81
2022/02/22 09:11:50;;;;;;;28.62;19.00;;;;;;;6.35;73.82;99325.81;1751620;80;21550;-85
2022/02/22 09:14:17;;;;;;;25.32;18.25;;;;;;;6.40;73.41;99331.06;1753461;80;21036;-84
2022/02/22 09:16:43;;;;;;;25.27;17.82;;;;;;;6.45;73.35;99329.38;1753050;81;22600;-83
2022/02/22 09:19:10;;;;;;;27.13;18.42;;;;;;;6.51;73.02;99328.91;1739197;81;21059;-82
2022/02/22 09:21:37;;;;;;;26.57;17.42;;;;;;;6.57;72.79;99327.11;1731754;80;21091;-82
2022/02/22 09:24:05;;;;;;;25.45;18.32;;;;;;;6.60;72.61;99318.99;1748580;80;21480;-83
2022/02/22 09:26:31;;;;;;;23.75;16.95;;;;;;;6.60;72.46;99322.92;1735532;81;21008;-83
2022/02/22 09:28:59;;;;;;;25.97;17.60;;;;;;;6.60;72.42;99320.30;1753800;80;21776;-80
2022/02/22 09:31:25;;;;;;;22.82;16.55;;;;;;;6.64;72.27;99319.56;1733766;81;21056;-77
2022/02/22 09:33:52;;;;;;;25.17;17.60;;;;;;;6.70;72.12;99315.98;1738233;80;21597;-78
2022/02/22 09:36:18;;;;;;;26.97;17.50;;;;;;;6.82;72.01;99315.47;1730820;81;21017;-78
2022/02/22 09:38:45;;;;;;;26.37;18.35;;;;;;;6.92;71.58;99319.50;1748597;80;21068;-79
2022/02/22 09:41:11;;;;;;;24.80;17.15;;;;;;;6.96;71.17;99317.83;1732135;82;21793;-80
2022/02/22 09:43:38;;;;;;;27.45;19.75;;;;;;;6.99;71.00;99324.61;1730969;82;21300;-75
2022/02/22 09:46:09;;;;;;;25.37;17.57;;;;;;;7.00;70.81;99328.91;1735112;82;21092;-75
2022/02/22 09:48:33;;;;;;;24.27;16.32;;;;;;;7.01;70.81;99325.31;1740321;80;21517;-76
2022/02/22 09:51:00;;;;;;;24.65;17.42;;;;;;;7.03;70.42;99332.58;1734813;81;21492;-78
2022/02/22 09:53:27;;;;;;;22.95;16.32;;;;;;;7.02;70.29;99334.86;1739629;81;21769;-79
2022/02/22 09:55:55;;;;;;;24.12;17.27;;;;;;;7.02;70.04;99332.23;1709590;81;21055;-77
2022/02/22 09:58:22;;;;;;;26.68;17.12;;;;;;;6.98;70.06;99322.95;1728520;81;21009;-84
2022/02/22 10:00:59;;;;;;;24.72;17.52;;;;;;;6.99;70.22;99328.55;1740208;80;21091;-82
2022/02/22 10:03:26;;;;;;;24.40;17.67;;;;;;;7.01;70.17;99324.00;1738421;81;21440;-82
2022/02/22 10:06:01;;;;;;;24.63;17.55;;;;;;;7.01;70.16;99320.06;1731079;81;21555;-74
2022/02/22 10:08:31;;;;;;;27.90;18.20;;;;;;;7.01;69.83;99324.00;1727010;81;28133;-78
2022/02/22 10:11:07;;;;;;;50.55;29.67;;;;;;;7.04;69.92;99314.55;1713376;81;21499;-76
2022/02/22 10:13:34;;;;;;;31.93;21.17;;;;;;;7.11;70.03;99320.98;1754056;81;21287;-84
2022/02/22 10:16:12;;;;;;;24.70;17.70;;;;;;;7.16;69.81;99313.58;1743488;81;21402;-79
2022/02/22 10:18:52;;;;;;;25.68;16.97;;;;;;;7.22;69.37;99316.98;1755089;81;21793;-81
2022/02/22 10:21:20;;;;;;;22.65;16.35;;;;;;;7.27;68.96;99312.20;1751604;81;20970;-79
2022/02/22 10:23:46;;;;;;;23.42;16.70;;;;;;;7.35;68.95;99311.58;1753164;81;21532;-84
2022/02/22 10:26:24;;;;;;;22.37;16.10;;;;;;;7.41;68.34;99307.94;1741841;80;20938;-77
2022/02/22 10:28:50;;;;;;;23.67;17.82;;;;;;;7.42;68.20;99304.34;1726443;82;21068;-79
2022/02/22 10:31:17;;;;;;;22.65;16.60;;;;;;;7.48;67.93;99312.70;1751979;79;22804;-78
2022/02/22 10:33:44;;;;;;;24.07;17.67;;;;;;;7.52;67.74;99312.78;1748987;81;21526;-80
2022/02/22 10:36:19;;;;;;;26.12;17.32;;;;;;;7.56;67.57;99300.58;1746456;81;21112;-82
2022/02/22 10:38:46;;;;;;;22.52;15.68;;;;;;;7.65;67.28;99313.44;1734694;82;21072;-81
2022/02/22 10:41:15;;;;;;;23.90;16.62;;;;;;;7.72;66.92;99319.81;1727250;82;21000;-84
2022/02/22 10:43:51;;;;;;;25.60;16.55;;;;;;;7.77;66.65;99320.28;1727556;82;21821;-85
2022/02/22 10:46:26;;;;;;;24.72;16.32;;;;;;;7.84;66.65;99324.06;1728756;82;21049;-82
2022/02/22 10:49:13;;;;;;;27.93;17.90;;;;;;;7.94;66.57;99320.17;1723955;82;21056;-86
2022/02/22 10:51:42;;;;;;;19.35;14.55;;;;;;;8.05;66.53;99321.39;1707288;82;21333;-82
2022/02/22 10:54:18;;;;;;;19.25;13.35;;;;;;;8.14;65.78;99321.92;1701821;83;21046;-72
2022/02/22 10:56:45;;;;;;;20.17;15.60;;;;;;;8.18;65.27;99323.31;1742226;81;21832;-73
2022/02/22 10:59:11;;;;;;;19.25;13.80;;;;;;;8.26;65.18;99317.39;1734676;80;21036;-79
2022/02/22 11:01:38;;;;;;;20.48;14.43;;;;;;;8.39;64.90;99315.87;1699576;80;21507;-84
2022/02/22 11:04:05;;;;;;;18.32;14.00;;;;;;;8.52;64.34;99313.36;1709606;82;21678;-82
2022/02/22 11:06:33;;;;;;;18.30;13.28;;;;;;;8.68;64.20;99315.95;1721163;82;21021;-84
2022/02/22 11:08:59;;;;;;;15.78;11.95;;;;;;;8.79;63.62;99314.05;1721164;82;22240;-82
2022/02/22 11:11:42;;;;;;;15.43;11.85;;;;;;;8.89;63.46;99310.95;1719893;82;20993;-85
2022/02/22 11:14:14;;;;;;;25.50;12.95;;;;;;;9.05;63.12;99306.43;1733407;82;20986;-84
2022/02/22 11:16:46;;;;;;;21.57;13.70;;;;;;;9.22;62.31;99311.98;1739476;82;20981;-85
2022/02/22 11:19:20;;;;;;;17.62;12.85;;;;;;;9.34;62.32;99309.55;1718659;82;21049;-85
2022/02/22 11:21:49;;;;;;;18.65;12.47;;;;;;;9.53;61.37;99312.16;1724009;82;21847;-85
2022/02/22 11:24:18;;;;;;;17.60;12.03;;;;;;;9.61;60.88;99300.43;1723331;82;20948;-87
2022/02/22 11:26:59;;;;;;;15.08;11.68;;;;;;;9.77;61.21;99308.25;1736152;82;21025;-86